Flight Track Log - Related Links

Times and Time Zones

All times are in EDT time to prevent confusion due to time zone crossing. See the ACA7017 flight status page for this flight to view local times or setup timezone preferences in your user account.

Time Position Orientation Groundspeed Altitude Reporting Facility
EDT Latitude Longitude Course Direction KTS MPH feet Rate Location/Type
Tue 01:28:23 AM 39.8833 -104.5833 105° East 187 215 6,900  Level Denver TRACON
Tue 01:29:22 AM 39.8667 -104.5000 105° East 251 289 8,600 2,059 Climbing Denver TRACON
Tue 01:30:05 AM 39.9092 -104.4597 36° Northeast 245 282 10,400 2,094 Climbing Denver Center
Tue 01:31:08 AM 39.9906 -104.4319 15° North 306 352 12,300 2,750 Climbing Denver Center
Tue 01:32:05 AM 40.0786 -104.4033 14° North 323 372 15,900 3,356 Climbing Denver Center
Tue 01:33:06 AM 40.1736 -104.3719 14° North 353 406 18,900 2,430 Climbing Denver Center
Tue 01:34:06 AM 40.2742 -104.3361 15° North 380 437 20,800 1,839 Climbing Denver Center
Tue 01:35:10 AM 40.3769 -104.3056 13° North 389 448 22,700 1,983 Climbing Denver Center
Tue 01:36:07 AM 40.4931 -104.2667 14° North 426 490 24,800 1,664 Climbing Denver Center
Tue 01:37:09 AM 40.6106 -104.2206 17° North 437 503 26,000 1,426 Climbing Denver Center
Tue 01:38:09 AM 40.7294 -104.1522 24° Northeast 465 535 27,700 1,500 Climbing Denver Center
Tue 01:39:09 AM 40.8517 -104.0839 23° Northeast 474 545 29,000 1,900 Climbing Denver Center
Tue 01:40:09 AM 40.9733 -104.0150 23° Northeast 479 551 31,500 1,967 Climbing Denver Center
Tue 01:41:11 AM 41.0933 -103.9458 23° Northeast 464 534 33,000 1,537 Climbing Denver Center
Tue 01:42:10 AM 41.2267 -103.8694 23° Northeast 465 535 34,600 984 Climbing Denver Center
Tue 01:43:13 AM 41.3392 -103.8050 23° Northeast 464 534 35,000 195 Climbing Denver Center
Tue 01:44:13 AM 41.4525 -103.7397 23° Northeast 464 534 35,000  Level Denver Center
Tue 01:45:11 AM 41.5842 -103.6628 24° Northeast 465 535 35,000  Level Denver Center
Tue 01:46:12 AM 41.6978 -103.5972 23° Northeast 464 534 35,000  Level Denver Center
Tue 01:47:12 AM 41.8175 -103.5292 23° Northeast 482 555 35,000  Level Denver Center
Tue 01:48:12 AM 41.9569 -103.4339 27° Northeast 501 577 35,000  Level Denver Center
Tue 01:49:12 AM 42.0756 -103.3394 31° Northeast 516 594 35,000  Level Denver Center
Tue 01:50:13 AM 42.1958 -103.2631 25° Northeast 506 582 35,000  Level Denver Center
Tue 01:51:14 AM 42.3367 -103.1692 26° Northeast 505 581 35,000  Level Denver Center
Tue 01:52:15 AM 42.4569 -103.0878 27° Northeast 505 581 35,000  Level Denver Center
Tue 01:53:14 AM 42.5781 -103.0069 26° Northeast 506 582 35,000  Level Denver Center
Tue 01:54:14 AM 42.7181 -102.9106 27° Northeast 506 582 35,000  Level Denver Center
Tue 01:55:14 AM 42.8403 -102.8289 26° Northeast 511 588 35,000  Level Denver Center
Tue 01:56:15 AM 42.9617 -102.7467 26° Northeast 509 586 35,000  Level Denver Center
Tue 01:57:15 AM 43.0833 -102.6611 27° Northeast 512 589 35,000  Level Denver Center
Tue 01:58:17 AM 43.2247 -102.5636 27° Northeast 512 589 35,000  Level Denver Center
Tue 01:59:18 AM 43.3469 -102.4794 27° Northeast 512 589 35,000  Level Denver Center
Tue 02:00:17 AM 43.4667 -102.3947 27° Northeast 508 585 35,000  Level Denver Center
Tue 02:01:17 AM 43.6075 -102.2989 26° Northeast 508 585 35,000  Level Denver Center
Tue 02:02:18 AM 43.7267 -102.2139 27° Northeast 505 581 35,000  Level Denver Center
Tue 02:03:18 AM 43.8453 -102.1286 27° Northeast 504 580 35,000  Level Denver Center
Tue 02:04:20 AM 43.9842 -102.0256 28° Northeast 503 579 35,000  Level Denver Center
Tue 02:05:20 AM 44.1106 -101.9372 27° Northeast 503 579 35,000  Level Denver Center
Tue 02:06:20 AM 44.2378 -101.8483 27° Northeast 505 581 35,000  Level Denver Center
Tue 02:07:21 AM 44.3653 -101.7575 27° Northeast 511 588 35,000  Level Denver Center
Tue 02:08:20 AM 44.4922 -101.6678 27° Northeast 511 588 35,000  Level Denver Center
Tue 02:09:14 AM 44.5931 -101.5931 28° Northeast 511 588 35,000  Level Minneapolis Center
Tue 02:10:15 AM 44.7197 -101.4989 28° Northeast 511 588 35,000  Level Minneapolis Center
Tue 02:11:15 AM 44.8467 -101.4058 27° Northeast 512 589 35,000  Level Minneapolis Center
Tue 02:12:15 AM 44.9731 -101.3122 28° Northeast 512 589 35,000  Level Minneapolis Center
Tue 02:13:15 AM 45.0992 -101.2197 27° Northeast 512 589 35,000  Level Minneapolis Center
Tue 02:14:16 AM 45.2253 -101.1256 28° Northeast 512 589 35,000  Level Minneapolis Center
Tue 02:15:16 AM 45.3525 -101.0303 28° Northeast 512 589 35,000  Level Minneapolis Center
Tue 02:16:16 AM 45.4800 -100.9342 28° Northeast 513 590 35,000  Level Minneapolis Center
Tue 02:17:17 AM 45.6061 -100.8381 28° Northeast 513 590 35,000  Level Minneapolis Center
Tue 02:18:17 AM 45.7317 -100.7419 28° Northeast 513 590 35,000  Level Minneapolis Center
Tue 02:19:17 AM 45.8567 -100.6464 28° Northeast 512 589 35,000  Level Minneapolis Center
Tue 02:20:18 AM 45.9814 -100.5500 28° Northeast 511 588 35,000  Level Minneapolis Center
Tue 02:21:18 AM 46.1064 -100.4542 28° Northeast 511 588 35,000  Level Minneapolis Center
Tue 02:22:18 AM 46.2303 -100.3561 29° Northeast 510 587 35,000  Level Minneapolis Center
Tue 02:23:18 AM 46.3561 -100.2578 28° Northeast 510 587 35,000  Level Minneapolis Center
Tue 02:24:19 AM 46.4808 -100.1600 28° Northeast 510 587 35,000  Level Minneapolis Center
Tue 02:25:19 AM 46.6114 -100.0581 28° Northeast 510 587 35,000  Level Minneapolis Center
Tue 02:26:19 AM 46.7347 -99.9581 29° Northeast 510 587 35,000 -50 Level Minneapolis Center
Tue 02:27:20 AM 46.8558 -99.8608 29° Northeast 504 580 34,900 -50 Descending Minneapolis Center
Tue 02:28:20 AM 46.9783 -99.7642 28° Northeast 503 579 34,900 50 Level Minneapolis Center
Tue 02:29:20 AM 47.0997 -99.6658 29° Northeast 502 578 35,000  Climbing Minneapolis Center
Tue 02:30:21 AM 47.2197 -99.5669 29° Northeast 499 574 34,900 -50 Descending Minneapolis Center
Tue 02:31:21 AM 47.3403 -99.4689 29° Northeast 499 574 34,900 50 Level Minneapolis Center
Tue 02:32:21 AM 47.4608 -99.3694 29° Northeast 498 573 35,000 50 Climbing Minneapolis Center
Tue 02:33:21 AM 47.5800 -99.2700 29° Northeast 495 570 35,000 -50 Level Minneapolis Center
Tue 02:34:22 AM 47.6992 -99.1722 29° Northeast 493 567 34,900 -50 Descending Minneapolis Center
Tue 02:35:22 AM 47.8169 -99.0758 29° Northeast 487 560 34,900 50 Level Minneapolis Center
Tue 02:36:22 AM 47.9333 -98.9778 29° Northeast 483 556 35,000  Climbing Minneapolis Center
Tue 02:37:23 AM 48.0506 -98.8775 30° Northeast 483 556 34,900  Descending Minneapolis Center
Tue 02:38:23 AM 48.1678 -98.7778 30° Northeast 483 556 35,000 -200 Climbing Minneapolis Center
Tue 02:39:23 AM 48.2842 -98.6792 29° Northeast 483 556 34,500 -744 Descending Minneapolis Center
Tue 02:40:24 AM 48.4031 -98.5806 29° Northeast 483 556 33,500 -1,190 Descending Minneapolis Center
Tue 02:41:24 AM 48.5222 -98.4781 30° Northeast 485 558 32,100 -1,700 Descending Minneapolis Center
Tue 02:42:24 AM 48.6397 -98.3767 30° Northeast 487 560 30,100 -2,430 Descending Minneapolis Center
Tue 02:43:25 AM 48.7528 -98.2758 30° Northeast 483 556 27,200 -2,529 Descending Minneapolis Center
Tue 02:44:25 AM 48.8608 -98.1717 32° Northeast 473 544 25,000 -2,650 Descending Minneapolis Center
Tue 02:45:25 AM 48.9608 -98.0661 35° Northeast 457 526 21,900 -2,975 Descending Minneapolis Center
Tue 02:46:26 AM 49.0539 -97.9769 32° Northeast 430 495 19,000 -2,826 Descending Minneapolis Center
Tue 02:47:26 AM 49.1403 -97.8931 32° Northeast 401 461 16,200 -2,260 Descending Minneapolis Center
Tue 02:48:52 AM 49.2333 -97.7667 42° Northeast 340 391 13,500 -1,932 Descending Winnipeg Center
Tue 02:49:52 AM 49.3333 -97.6833 28° Northeast 320 368 11,500 -1,700 Descending Winnipeg Center
Tue 02:50:52 AM 49.4000 -97.6333 26° Northeast 300 345 10,100 -1,400 Descending Winnipeg Center
Tue 02:51:52 AM 49.4500 -97.5500 47° Northeast 280 322 8,700 -1,550 Descending Winnipeg Center
Tue 02:52:52 AM 49.5167 -97.5000 26° Northeast 270 311 7,000 -1,650 Descending Winnipeg Center
Tue 02:53:52 AM 49.5833 -97.4333 33° Northeast 260 299 5,400 -1,700 Descending Winnipeg Center
Tue 02:54:52 AM 49.6333 -97.3833 33° Northeast 250 288 3,600 -1,000 Descending Winnipeg Center
Tue 02:55:52 AM 49.7000 -97.3333 26° Northeast 220 253 3,400 -100 Descending Winnipeg Center
Tue 02:56:52 AM 49.7333 -97.2833 44° Northeast 180 207 3,400 -250 Level Winnipeg Center
Tue 02:57:52 AM 49.7833 -97.2500 23° Northeast 170 196 2,900 -650 Descending Winnipeg Center
Tue 02:58:52 AM 49.8167 -97.2500 360° North 140 161 2,100 -750 Descending Winnipeg Center
Tue 02:59:52 AM 49.8500 -97.2500 360° North 110 127 1,400 -650 Descending Winnipeg Center
Tue 03:00:52 AM 49.8833 -97.2333 18° North 110 127 800 -600 Descending Winnipeg Center

Login

Don't have an account? Register now (free) for customized features, flight alerts, and more!